createdAt,value
2023-02-27T00:00:41.010Z,3.50
2023-02-27T00:03:25.745Z,3.46
2023-02-27T00:05:53.915Z,3.50
2023-02-27T00:08:22.261Z,3.50
2023-02-27T00:10:50.619Z,3.50
2023-02-27T00:13:18.774Z,3.48
2023-02-27T00:15:49.530Z,3.40
2023-02-27T00:18:17.811Z,3.40
2023-02-27T00:20:45.747Z,3.40
2023-02-27T00:23:15.751Z,3.40
2023-02-27T00:25:43.954Z,3.40
2023-02-27T00:28:12.067Z,3.40
2023-02-27T00:30:40.034Z,3.32
2023-02-27T00:33:07.994Z,3.30
2023-02-27T00:35:35.805Z,3.30
2023-02-27T00:38:03.774Z,3.26
2023-02-27T00:40:32.239Z,3.20
2023-02-27T00:43:00.146Z,3.20
2023-02-27T00:45:30.276Z,3.20
2023-02-27T00:47:58.047Z,3.20
2023-02-27T00:50:25.784Z,3.20
2023-02-27T00:52:53.677Z,3.20
2023-02-27T00:55:22.758Z,3.20
2023-02-27T00:57:50.611Z,3.30
2023-02-27T01:00:19.088Z,3.26
2023-02-27T01:02:47.011Z,3.20
2023-02-27T01:05:15.424Z,3.20
2023-02-27T01:07:43.189Z,3.20
2023-02-27T01:10:12.775Z,3.10
2023-02-27T01:12:41.577Z,3.10
2023-02-27T01:15:11.698Z,3.10
2023-02-27T01:17:39.773Z,3.10
2023-02-27T01:20:11.221Z,3.10
2023-02-27T01:22:39.241Z,3.10
2023-02-27T01:25:08.423Z,3.10
2023-02-27T01:27:36.497Z,3.10
2023-02-27T01:30:07.102Z,3.10
2023-02-27T01:32:34.831Z,3.10
2023-02-27T01:35:02.825Z,3.02
2023-02-27T01:37:30.604Z,3.00
2023-02-27T01:39:58.628Z,3.00
2023-02-27T01:42:29.010Z,3.00
2023-02-27T01:45:12.922Z,3.00
2023-02-27T01:47:47.753Z,3.00
2023-02-27T01:50:17.720Z,3.00
2023-02-27T01:52:52.790Z,3.00
2023-02-27T01:55:21.699Z,3.00
2023-02-27T01:57:50.606Z,3.00
2023-02-27T02:00:19.308Z,3.00
2023-02-27T02:03:40.585Z,2.94
2023-02-27T02:06:09.075Z,2.90
2023-02-27T02:08:46.137Z,2.90
2023-02-27T02:11:17.952Z,2.90
2023-02-27T02:13:49.805Z,2.90
2023-02-27T02:16:36.963Z,2.92
2023-02-27T02:19:42.236Z,2.92
2023-02-27T02:22:53.998Z,2.90
2023-02-27T02:26:08.436Z,2.90
2023-02-27T02:29:19.266Z,2.90
2023-02-27T02:32:13.711Z,2.90
2023-02-27T02:35:21.601Z,2.88
2023-02-27T02:38:07.340Z,2.80
2023-02-27T02:41:15.034Z,2.80
2023-02-27T02:43:57.668Z,2.80
2023-02-27T02:47:14.465Z,2.80
2023-02-27T02:50:24.843Z,2.72
2023-02-27T02:53:11.019Z,2.70
2023-02-27T02:56:10.631Z,2.78
2023-02-27T02:58:59.631Z,2.74
2023-02-27T03:01:36.834Z,2.80
2023-02-27T03:04:18.395Z,2.80
2023-02-27T03:07:06.274Z,2.80
2023-02-27T03:09:41.113Z,2.80
2023-02-27T03:12:13.260Z,2.80
2023-02-27T03:14:51.810Z,2.80
2023-02-27T03:17:40.532Z,2.80
2023-02-27T03:20:12.548Z,2.80
2023-02-27T03:22:46.096Z,2.80
2023-02-27T03:25:15.367Z,2.80
2023-02-27T03:28:12.865Z,2.80
2023-02-27T03:31:01.604Z,2.80
2023-02-27T03:33:47.469Z,2.90
2023-02-27T03:36:41.158Z,2.90
2023-02-27T03:39:44.885Z,2.90
2023-02-27T03:42:57.879Z,2.90
2023-02-27T03:46:03.919Z,2.80
2023-02-27T03:48:31.780Z,2.80
2023-02-27T03:51:00.697Z,2.80
2023-02-27T03:53:37.451Z,2.80
2023-02-27T03:56:08.953Z,2.80
2023-02-27T03:58:36.920Z,2.80
2023-02-27T04:01:05.105Z,2.80
2023-02-27T04:03:37.237Z,2.88
2023-02-27T04:06:26.007Z,2.90
2023-02-27T04:09:17.071Z,2.90
2023-02-27T04:12:04.951Z,2.90
2023-02-27T04:14:32.961Z,2.90
2023-02-27T04:17:14.637Z,2.90
2023-02-27T04:19:57.733Z,2.92
2023-02-27T04:22:37.038Z,3.00
2023-02-27T04:25:24.610Z,3.00
2023-02-27T04:28:23.660Z,3.00
2023-02-27T04:31:24.399Z,3.00
2023-02-27T04:34:25.425Z,3.00
2023-02-27T04:37:31.753Z,3.00
2023-02-27T04:40:13.548Z,3.00
2023-02-27T04:42:49.110Z,3.00
2023-02-27T04:45:21.105Z,3.00
2023-02-27T04:47:58.961Z,3.00
2023-02-27T04:50:35.060Z,3.00
2023-02-27T04:53:14.013Z,3.00
2023-02-27T04:55:47.497Z,2.96
2023-02-27T04:58:36.628Z,2.92
2023-02-27T05:01:13.229Z,2.90
2023-02-27T05:03:48.361Z,2.90
2023-02-27T05:06:20.263Z,2.90
2023-02-27T05:09:11.986Z,2.90
2023-02-27T05:12:01.263Z,2.86
2023-02-27T05:14:39.304Z,2.90
2023-02-27T05:17:19.685Z,2.90
2023-02-27T05:19:47.949Z,2.90
2023-02-27T05:22:48.660Z,2.90
2023-02-27T05:25:50.079Z,2.90
2023-02-27T05:28:33.905Z,2.90
2023-02-27T05:31:21.501Z,2.90
2023-02-27T05:33:57.493Z,2.90
2023-02-27T05:36:34.756Z,2.90
2023-02-27T05:39:10.408Z,2.90
2023-02-27T05:41:50.685Z,2.88
2023-02-27T05:44:28.110Z,2.90
2023-02-27T05:47:20.885Z,2.80
2023-02-27T05:49:56.538Z,2.80
2023-02-27T05:52:26.718Z,2.78
2023-02-27T05:55:26.471Z,2.70
2023-02-27T05:58:09.728Z,2.70
2023-02-27T06:00:57.280Z,2.68
2023-02-27T06:03:27.122Z,2.64
2023-02-27T06:05:58.269Z,2.62
2023-02-27T06:08:26.860Z,2.60
2023-02-27T06:10:57.544Z,2.60
2023-02-27T06:13:26.688Z,2.60
2023-02-27T06:15:54.405Z,2.60
2023-02-27T06:18:23.152Z,2.60
2023-02-27T06:20:51.991Z,2.60
2023-02-27T06:23:19.840Z,2.60
2023-02-27T06:25:49.333Z,2.60
2023-02-27T06:28:17.194Z,2.60
2023-02-27T06:30:46.447Z,2.60
2023-02-27T06:33:14.333Z,2.60
2023-02-27T06:35:42.240Z,2.60
2023-02-27T06:38:10.588Z,2.60
2023-02-27T06:40:38.601Z,2.60
2023-02-27T06:43:06.384Z,2.62
2023-02-27T06:45:35.054Z,2.70
2023-02-27T06:48:03.351Z,2.70
2023-02-27T06:50:31.735Z,2.60
2023-02-27T06:52:59.569Z,2.60
2023-02-27T06:55:27.341Z,2.60
2023-02-27T06:57:55.135Z,2.60
2023-02-27T07:00:23.550Z,2.60
2023-02-27T07:02:51.277Z,2.50
2023-02-27T07:05:19.254Z,2.50
2023-02-27T07:07:47.203Z,2.50
2023-02-27T07:10:16.371Z,2.50
2023-02-27T07:12:44.596Z,2.50
2023-02-27T07:15:12.777Z,2.50
2023-02-27T07:17:40.604Z,2.50
2023-02-27T07:20:11.759Z,2.50
2023-02-27T07:22:41.126Z,2.40
2023-02-27T07:25:09.604Z,2.44
2023-02-27T07:27:37.640Z,2.48
2023-02-27T07:30:06.329Z,2.46
2023-02-27T07:32:34.217Z,2.42
2023-02-27T07:35:03.320Z,2.50
2023-02-27T07:37:31.054Z,2.40
2023-02-27T07:39:58.834Z,2.42
2023-02-27T07:42:26.632Z,2.50
2023-02-27T07:44:55.564Z,2.50
2023-02-27T07:47:23.438Z,2.50
2023-02-27T07:49:51.467Z,2.50
2023-02-27T07:52:19.323Z,2.50
2023-02-27T07:54:47.166Z,2.50
2023-02-27T07:57:14.885Z,2.50
2023-02-27T07:59:42.742Z,2.50
2023-02-27T08:02:12.641Z,2.50
2023-02-27T08:04:40.523Z,2.50
2023-02-27T08:07:08.317Z,2.54
2023-02-27T08:09:36.526Z,2.60
2023-02-27T08:12:04.806Z,2.60
2023-02-27T08:14:32.643Z,2.70
2023-02-27T08:17:00.705Z,2.76
2023-02-27T08:19:28.820Z,2.80
2023-02-27T08:21:56.704Z,2.90
2023-02-27T08:24:24.676Z,2.90
2023-02-27T08:26:52.582Z,3.00
2023-02-27T08:29:20.576Z,3.10
2023-02-27T08:31:48.398Z,3.20
2023-02-27T08:34:16.545Z,3.20
2023-02-27T08:36:44.422Z,3.30
2023-02-27T08:39:12.765Z,3.38
2023-02-27T08:41:40.727Z,3.40
2023-02-27T08:44:08.656Z,3.40
2023-02-27T08:46:36.391Z,3.46
2023-02-27T08:49:04.529Z,3.50
2023-02-27T08:51:32.354Z,3.60
2023-02-27T08:54:00.220Z,3.68
2023-02-27T08:56:29.537Z,3.70
2023-02-27T08:58:57.554Z,3.70
2023-02-27T09:01:28.566Z,3.72
2023-02-27T09:03:56.614Z,3.80
2023-02-27T09:06:26.615Z,3.90
2023-02-27T09:08:54.596Z,4.00
2023-02-27T09:11:22.814Z,4.10
2023-02-27T09:13:51.657Z,4.10
2023-02-27T09:16:22.403Z,4.10
2023-02-27T09:18:51.194Z,4.12
2023-02-27T09:21:19.033Z,4.18
2023-02-27T09:23:47.034Z,4.10
2023-02-27T09:26:16.220Z,4.12
2023-02-27T09:28:44.429Z,4.14
2023-02-27T09:31:13.096Z,4.10
2023-02-27T09:33:40.940Z,4.10
2023-02-27T09:36:09.019Z,4.10
2023-02-27T09:38:40.973Z,4.10
2023-02-27T09:41:48.361Z,4.10
2023-02-27T09:44:46.979Z,4.04
2023-02-27T09:47:28.890Z,4.08
2023-02-27T09:50:08.936Z,4.10
2023-02-27T09:52:38.012Z,4.10
2023-02-27T09:55:21.320Z,4.10
2023-02-27T09:58:01.729Z,4.00
2023-02-27T10:00:59.577Z,4.00
2023-02-27T10:03:55.826Z,4.00
2023-02-27T10:06:41.130Z,4.00
2023-02-27T10:10:00.342Z,4.00
2023-02-27T10:12:40.998Z,3.98
2023-02-27T10:15:20.216Z,3.98
2023-02-27T10:18:26.111Z,3.98
2023-02-27T10:21:10.790Z,3.92
2023-02-27T10:24:00.629Z,3.90
2023-02-27T10:26:33.316Z,3.80
2023-02-27T10:29:17.527Z,3.80
2023-02-27T10:31:49.690Z,3.80
2023-02-27T10:34:17.887Z,3.80
2023-02-27T10:36:47.077Z,3.80
2023-02-27T10:39:18.437Z,3.80
2023-02-27T10:41:47.047Z,3.80
2023-02-27T10:44:18.668Z,3.80
2023-02-27T10:46:49.993Z,3.80
2023-02-27T10:49:22.257Z,3.80
2023-02-27T10:52:13.938Z,3.80
2023-02-27T10:54:42.729Z,3.80
2023-02-27T10:57:30.948Z,3.70
2023-02-27T11:00:11.349Z,3.60
2023-02-27T11:02:42.931Z,3.58
2023-02-27T11:05:27.017Z,3.50
2023-02-27T11:08:10.106Z,3.50
2023-02-27T11:10:52.635Z,3.50
2023-02-27T11:13:25.836Z,3.50
2023-02-27T11:16:09.594Z,3.46
2023-02-27T11:18:41.202Z,3.50
2023-02-27T11:21:29.957Z,3.52
2023-02-27T11:24:03.241Z,3.56
2023-02-27T11:26:36.305Z,3.56
2023-02-27T11:29:11.727Z,3.50
2023-02-27T11:31:43.823Z,3.50
2023-02-27T11:34:42.650Z,3.52
2023-02-27T11:37:35.125Z,3.50
2023-02-27T11:40:30.042Z,3.50
2023-02-27T11:43:05.197Z,3.54
2023-02-27T11:46:05.178Z,3.60
2023-02-27T11:48:39.788Z,3.60
2023-02-27T11:51:10.852Z,3.60
2023-02-27T11:54:15.761Z,3.60
2023-02-27T11:56:49.388Z,3.54
2023-02-27T11:59:42.139Z,3.50
2023-02-27T12:02:39.125Z,3.50
2023-02-27T12:05:18.156Z,3.50
2023-02-27T12:08:25.589Z,3.50
2023-02-27T12:11:13.077Z,3.50
2023-02-27T12:13:49.545Z,3.48
2023-02-27T12:16:48.351Z,3.40
2023-02-27T12:19:56.148Z,3.40
2023-02-27T12:22:30.833Z,3.50
2023-02-27T12:25:38.735Z,3.50
2023-02-27T12:28:24.440Z,3.50
2023-02-27T12:31:01.701Z,3.40
2023-02-27T12:33:52.700Z,3.40
2023-02-27T12:36:20.613Z,3.30
2023-02-27T12:38:48.472Z,3.30
2023-02-27T12:41:47.642Z,3.30
2023-02-27T12:44:41.934Z,3.30
2023-02-27T12:47:12.644Z,3.26
2023-02-27T12:50:02.694Z,3.20
2023-02-27T12:52:59.546Z,3.20
2023-02-27T12:55:37.943Z,3.20
2023-02-27T12:58:35.235Z,3.20
2023-02-27T13:01:24.149Z,3.20
2023-02-27T13:04:12.617Z,3.20
2023-02-27T13:06:57.011Z,3.20
2023-02-27T13:09:45.494Z,3.20
2023-02-27T13:12:47.476Z,3.20
2023-02-27T13:15:23.204Z,3.20
2023-02-27T13:18:07.145Z,3.20
2023-02-27T13:20:53.279Z,3.20
2023-02-27T13:23:56.458Z,3.10
2023-02-27T13:27:07.543Z,3.10
2023-02-27T13:29:40.831Z,3.10
2023-02-27T13:32:56.344Z,3.10
2023-02-27T13:35:48.281Z,3.10
2023-02-27T13:38:46.483Z,3.10
2023-02-27T13:41:20.421Z,3.00
2023-02-27T13:43:52.799Z,2.90
2023-02-27T13:46:31.879Z,2.90
2023-02-27T13:49:05.730Z,2.90
2023-02-27T13:51:37.638Z,2.80
2023-02-27T13:54:14.431Z,2.80
2023-02-27T13:57:07.483Z,2.80
2023-02-27T13:59:42.022Z,2.76
2023-02-27T14:02:09.808Z,2.74
2023-02-27T14:04:51.415Z,2.80
2023-02-27T14:07:26.824Z,2.80
2023-02-27T14:10:11.391Z,2.80
2023-02-27T14:12:46.225Z,2.90
2023-02-27T14:15:17.671Z,2.90
2023-02-27T14:17:48.742Z,2.90
2023-02-27T14:20:17.939Z,2.88
2023-02-27T14:23:26.978Z,2.80
2023-02-27T14:26:20.537Z,2.80
2023-02-27T14:28:55.937Z,2.90
2023-02-27T14:31:29.927Z,2.90
2023-02-27T14:34:05.256Z,2.90
2023-02-27T14:36:45.925Z,2.80
2023-02-27T14:39:30.073Z,2.80
2023-02-27T14:42:16.716Z,2.72
2023-02-27T14:44:47.900Z,2.70
2023-02-27T14:47:24.105Z,2.70
2023-02-27T14:49:52.723Z,2.70
2023-02-27T14:52:24.816Z,2.70
2023-02-27T14:54:53.682Z,2.72
2023-02-27T14:57:26.818Z,2.80
2023-02-27T14:59:55.272Z,2.76
2023-02-27T15:02:30.724Z,2.76
2023-02-27T15:05:01.401Z,2.80
2023-02-27T15:07:32.986Z,2.80
2023-02-27T15:10:06.104Z,2.80
2023-02-27T15:12:39.269Z,2.72
2023-02-27T15:15:10.524Z,2.80
2023-02-27T15:17:42.363Z,2.80
2023-02-27T15:20:29.510Z,2.70
2023-02-27T15:23:21.124Z,2.70
2023-02-27T15:25:49.175Z,2.70
2023-02-27T15:28:23.149Z,2.70
2023-02-27T15:30:53.994Z,2.70
2023-02-27T15:33:29.146Z,2.70
2023-02-27T15:35:58.365Z,2.70
2023-02-27T15:38:30.213Z,2.70
2023-02-27T15:41:00.589Z,2.60
2023-02-27T15:43:30.309Z,2.60
2023-02-27T15:45:59.102Z,2.60
2023-02-27T15:48:27.225Z,2.60
2023-02-27T15:50:59.487Z,2.60
2023-02-27T15:53:34.191Z,2.54
2023-02-27T15:56:07.622Z,2.60
2023-02-27T15:58:41.132Z,2.60
2023-02-27T16:01:19.065Z,2.70
2023-02-27T16:03:51.794Z,2.70
2023-02-27T16:06:25.370Z,2.70
2023-02-27T16:09:00.853Z,2.70
2023-02-27T16:11:32.088Z,2.60
2023-02-27T16:14:00.402Z,2.62
2023-02-27T16:16:37.707Z,2.70
2023-02-27T16:19:22.551Z,2.70
2023-02-27T16:22:14.109Z,2.70
2023-02-27T16:24:43.473Z,2.70
2023-02-27T16:27:31.988Z,2.70
2023-02-27T16:30:02.619Z,2.70
2023-02-27T16:32:55.649Z,2.66
2023-02-27T16:35:23.873Z,2.70
2023-02-27T16:37:53.496Z,2.70
2023-02-27T16:40:25.200Z,2.70
2023-02-27T16:42:53.728Z,2.70
2023-02-27T16:45:28.102Z,2.70
2023-02-27T16:47:59.697Z,2.70
2023-02-27T16:50:40.510Z,2.70
2023-02-27T16:53:08.989Z,2.70
2023-02-27T16:55:41.011Z,2.70
2023-02-27T16:58:15.487Z,2.72
2023-02-27T17:00:43.691Z,2.70
2023-02-27T17:03:11.494Z,2.70
2023-02-27T17:05:39.341Z,2.70
2023-02-27T17:08:07.528Z,2.70
2023-02-27T17:10:35.420Z,2.70
2023-02-27T17:13:03.170Z,2.70
2023-02-27T17:15:30.925Z,2.60
2023-02-27T17:17:58.698Z,2.60
2023-02-27T17:20:27.995Z,2.60
2023-02-27T17:22:56.158Z,2.58
2023-02-27T17:25:23.992Z,2.60
2023-02-27T17:27:51.834Z,2.56
2023-02-27T17:30:20.426Z,2.54
2023-02-27T17:32:48.206Z,2.50
2023-02-27T17:35:15.951Z,2.50
2023-02-27T17:37:43.673Z,2.50
2023-02-27T17:40:12.321Z,2.50
2023-02-27T17:42:40.444Z,2.50
2023-02-27T17:45:09.449Z,2.58
2023-02-27T17:47:37.464Z,2.60
2023-02-27T17:50:06.294Z,2.60
2023-02-27T17:52:37.506Z,2.60
2023-02-27T17:55:08.550Z,2.60
2023-02-27T17:57:37.577Z,2.60
2023-02-27T18:00:06.505Z,2.60
2023-02-27T18:02:36.110Z,2.60
2023-02-27T18:05:04.784Z,2.60
2023-02-27T18:07:34.592Z,2.60
2023-02-27T18:10:05.460Z,2.60
2023-02-27T18:12:34.276Z,2.60
2023-02-27T18:15:03.229Z,2.60
2023-02-27T18:17:30.982Z,2.60
2023-02-27T18:19:58.757Z,2.60
2023-02-27T18:22:27.382Z,2.60
2023-02-27T18:24:55.663Z,2.60
2023-02-27T18:27:23.426Z,2.52
2023-02-27T18:29:51.317Z,2.50
2023-02-27T18:32:19.100Z,2.50
2023-02-27T18:34:47.018Z,2.50
2023-02-27T18:37:14.829Z,2.50
2023-02-27T18:39:44.120Z,2.50
2023-02-27T18:42:11.910Z,2.48
2023-02-27T18:44:41.387Z,2.40
2023-02-27T18:47:09.743Z,2.40
2023-02-27T18:49:37.869Z,2.40
2023-02-27T18:52:05.718Z,2.40
2023-02-27T18:54:33.554Z,2.40
2023-02-27T18:57:01.291Z,2.40
2023-02-27T18:59:29.110Z,2.44
2023-02-27T19:01:57.954Z,2.44
2023-02-27T19:04:25.661Z,2.40
2023-02-27T19:06:53.648Z,2.40
2023-02-27T19:09:22.308Z,2.40
2023-02-27T19:11:50.055Z,2.30
2023-02-27T19:14:17.925Z,2.30
2023-02-27T19:16:46.450Z,2.30
2023-02-27T19:19:14.557Z,2.30
2023-02-27T19:21:42.694Z,2.32
2023-02-27T19:24:12.592Z,2.30
2023-02-27T19:26:40.875Z,2.30
2023-02-27T19:29:08.852Z,2.28
2023-02-27T19:31:36.860Z,2.30
2023-02-27T19:34:05.774Z,2.28
2023-02-27T19:36:34.917Z,2.20
2023-02-27T19:39:04.203Z,2.26
2023-02-27T19:41:33.525Z,2.20
2023-02-27T19:44:01.798Z,2.20
2023-02-27T19:46:34.536Z,2.20
2023-02-27T19:49:05.531Z,2.20
2023-02-27T19:51:34.031Z,2.18
2023-02-27T19:54:02.134Z,2.20
2023-02-27T19:56:31.033Z,2.20
2023-02-27T19:59:00.672Z,2.20
2023-02-27T20:01:34.512Z,2.16
2023-02-27T20:04:03.496Z,2.10
2023-02-27T20:06:41.999Z,2.10
2023-02-27T20:09:16.149Z,2.10
2023-02-27T20:11:47.023Z,2.10
2023-02-27T20:14:17.384Z,2.10
2023-02-27T20:16:46.512Z,2.10
2023-02-27T20:19:18.222Z,2.10
2023-02-27T20:21:47.318Z,2.10
2023-02-27T20:24:16.451Z,2.10
2023-02-27T20:26:48.683Z,2.10
2023-02-27T20:29:21.453Z,2.10
2023-02-27T20:31:51.389Z,2.10
2023-02-27T20:34:26.360Z,2.10
2023-02-27T20:36:55.373Z,2.10
2023-02-27T20:39:23.182Z,2.10
2023-02-27T20:41:51.151Z,2.10
2023-02-27T20:44:19.198Z,2.02
2023-02-27T20:46:49.281Z,2.00
2023-02-27T20:49:17.575Z,2.00
2023-02-27T20:51:45.778Z,2.00
2023-02-27T20:54:20.131Z,2.00
2023-02-27T20:57:00.324Z,2.00
2023-02-27T20:59:28.352Z,2.00
2023-02-27T21:01:56.585Z,2.00
2023-02-27T21:04:43.180Z,1.98
2023-02-27T21:07:18.913Z,1.90
2023-02-27T21:09:47.510Z,1.90
2023-02-27T21:12:16.750Z,1.94
2023-02-27T21:14:45.267Z,1.90
2023-02-27T21:17:13.826Z,1.90
2023-02-27T21:19:41.813Z,1.90
2023-02-27T21:22:11.373Z,1.90
2023-02-27T21:24:39.283Z,1.80
2023-02-27T21:27:07.201Z,1.78
2023-02-27T21:29:35.043Z,1.80
2023-02-27T21:32:03.071Z,1.80
2023-02-27T21:34:30.866Z,1.80
2023-02-27T21:37:01.150Z,1.80
2023-02-27T21:39:29.091Z,1.80
2023-02-27T21:42:00.093Z,1.78
2023-02-27T21:44:29.666Z,1.72
2023-02-27T21:46:58.527Z,1.70
2023-02-27T21:49:28.650Z,1.80
2023-02-27T21:51:56.466Z,1.80
2023-02-27T21:54:25.118Z,1.80
2023-02-27T21:56:52.999Z,1.74
2023-02-27T21:59:21.735Z,1.70
2023-02-27T22:01:49.897Z,1.70
2023-02-27T22:04:20.145Z,1.70
2023-02-27T22:06:50.510Z,1.68
2023-02-27T22:09:19.732Z,1.60
2023-02-27T22:11:48.243Z,1.60
2023-02-27T22:14:16.800Z,1.66
2023-02-27T22:16:44.527Z,1.66
2023-02-27T22:19:19.671Z,1.60
2023-02-27T22:21:48.162Z,1.60
2023-02-27T22:24:16.232Z,1.60
2023-02-27T22:26:44.620Z,1.60
2023-02-27T22:29:12.994Z,1.60
2023-02-27T22:31:41.300Z,1.60
2023-02-27T22:34:18.287Z,1.58
2023-02-27T22:36:48.806Z,1.54
2023-02-27T22:39:16.685Z,1.50
2023-02-27T22:41:46.036Z,1.50
2023-02-27T22:44:16.017Z,1.50
2023-02-27T22:46:48.319Z,1.50
2023-02-27T22:49:22.684Z,1.50
2023-02-27T22:51:52.302Z,1.50
2023-02-27T22:54:22.552Z,1.46
2023-02-27T22:56:52.614Z,1.40
2023-02-27T22:59:21.148Z,1.40
2023-02-27T23:01:50.418Z,1.40
2023-02-27T23:04:18.827Z,1.40
2023-02-27T23:06:46.850Z,1.40
2023-02-27T23:09:18.965Z,1.40
2023-02-27T23:11:46.909Z,1.30
2023-02-27T23:14:15.255Z,1.36
2023-02-27T23:16:47.081Z,1.30
2023-02-27T23:19:18.545Z,1.30
2023-02-27T23:21:46.507Z,1.30
2023-02-27T23:24:17.667Z,1.30
2023-02-27T23:26:48.780Z,1.30
2023-02-27T23:29:17.171Z,1.24
2023-02-27T23:31:45.199Z,1.28
2023-02-27T23:34:13.121Z,1.30
2023-02-27T23:36:41.147Z,1.30
2023-02-27T23:39:09.444Z,1.20
2023-02-27T23:41:37.216Z,1.20
2023-02-27T23:44:05.141Z,1.20
2023-02-27T23:46:32.934Z,1.20
2023-02-27T23:49:01.974Z,1.20
2023-02-27T23:51:30.792Z,1.20
2023-02-27T23:53:59.629Z,1.20
2023-02-27T23:56:30.277Z,1.20
2023-02-27T23:59:04.884Z,1.10
